Selfridge Angb Airport
KMTC : now visible

Airfield :











YOU CAN JOIN US ON...

 
LOGIN :

Register | Disclaimer

   EN    FR    IT 

 









Legend :    VFR   Marginal VFR   IFR   Intensive IFR   Very Intensive IFR
Visi :
Ceiling :
>= 8 km
>= 3000ft
5 to 8 km
1000 to 3000 ft
1500m to 5 km
500 to 1000 ft
800 to 1500m
200 to 500 ft
< 800m
< 200 ft
Symbols :   Thunderstorms  Fog  Heavy snow  Heavy precipitations  Wind > 20 kt






- Airport Elevation : 580 ft


KMTC - Selfridge Angb

CURRENT METAR :
  • 042356Z 34006KT 10SM CLR M04/M11 A3027 RMK AO2A SLP263 60000 T10391112 11006 21039 52004 $

EXPIRED METARs :
  • 042256Z 36012KT 10SM CLR M02/M11 A3026 RMK AO2A SLP259 T10251108 $
  • 042156Z 34012G19KT 10SM FEW030 M02/M11 A3026 RMK AO2A SLP259 T10161109 $

TAF AMD TAF KMTC
Valid from the 05 at 00:00 until the 05 at 23:00 UTC


050005Z 0500/0523 34006KT 9999 SKC QNH3025INS
BECMG 0514/0515 31012G20KT 9999 FEW040 QNH3016INS TX00/0517Z TNM07/0511Z
KZOB FIR / North America



MET'MAP, your aeronautical weather chart ! - Copyright ORBIFLY December 2007 - Disclaimer

ORBIFLY MET'MAP TEAM :

Programming & Development : Alexandra Zaïnal
Concept & original design : Baudouin d'Aumeries
Assistance for programming : Marc-Olivier Méhu
Technical & hardware support : Manuel Goepfert

Contact : metmap@orbifly.com




SOURCES & CREDITS :

   NOAA       Earth
Advisory